sensor_id;sensor_type;location;lat;lon;timestamp;P1;durP1;ratioP1;P2;durP2;ratioP2
27802;SDS011;15182;48.174;11.562;2024-03-08T00:01:57;12.57;;;10.40;;
27802;SDS011;15182;48.174;11.562;2024-03-08T00:04:25;12.57;;;10.33;;
27802;SDS011;15182;48.174;11.562;2024-03-08T00:06:54;13.63;;;10.57;;
27802;SDS011;15182;48.174;11.562;2024-03-08T00:09:23;14.43;;;11.37;;
27802;SDS011;15182;48.174;11.562;2024-03-08T00:11:53;13.47;;;10.57;;
27802;SDS011;15182;48.174;11.562;2024-03-08T00:14:20;13.97;;;10.43;;
27802;SDS011;15182;48.174;11.562;2024-03-08T00:16:48;13.47;;;10.13;;
27802;SDS011;15182;48.174;11.562;2024-03-08T00:19:18;14.03;;;10.97;;
27802;SDS011;15182;48.174;11.562;2024-03-08T00:21:46;12.83;;;10.33;;
27802;SDS011;15182;48.174;11.562;2024-03-08T00:24:15;15.10;;;11.60;;
27802;SDS011;15182;48.174;11.562;2024-03-08T00:26:43;15.93;;;11.17;;
27802;SDS011;15182;48.174;11.562;2024-03-08T00:29:11;15.20;;;10.30;;
27802;SDS011;15182;48.174;11.562;2024-03-08T00:31:39;13.20;;;10.57;;
27802;SDS011;15182;48.174;11.562;2024-03-08T00:34:06;14.17;;;10.17;;
27802;SDS011;15182;48.174;11.562;2024-03-08T00:36:37;14.03;;;11.13;;
27802;SDS011;15182;48.174;11.562;2024-03-08T00:39:05;13.43;;;11.03;;
27802;SDS011;15182;48.174;11.562;2024-03-08T00:41:34;11.97;;;9.77;;
27802;SDS011;15182;48.174;11.562;2024-03-08T00:44:02;12.83;;;10.43;;
27802;SDS011;15182;48.174;11.562;2024-03-08T00:46:31;13.23;;;10.47;;
27802;SDS011;15182;48.174;11.562;2024-03-08T00:48:59;18.13;;;11.67;;
27802;SDS011;15182;48.174;11.562;2024-03-08T00:51:28;13.90;;;11.53;;
27802;SDS011;15182;48.174;11.562;2024-03-08T00:53:56;17.53;;;11.00;;
27802;SDS011;15182;48.174;11.562;2024-03-08T00:56:23;15.07;;;11.23;;
27802;SDS011;15182;48.174;11.562;2024-03-08T00:58:53;13.33;;;10.10;;
27802;SDS011;15182;48.174;11.562;2024-03-08T01:01:21;15.93;;;11.37;;
27802;SDS011;15182;48.174;11.562;2024-03-08T01:03:50;14.80;;;10.63;;
27802;SDS011;15182;48.174;11.562;2024-03-08T01:06:18;13.67;;;11.13;;
27802;SDS011;15182;48.174;11.562;2024-03-08T01:08:46;12.83;;;11.20;;
27802;SDS011;15182;48.174;11.562;2024-03-08T01:11:13;13.63;;;10.47;;
27802;SDS011;15182;48.174;11.562;2024-03-08T01:13:41;15.87;;;10.97;;
27802;SDS011;15182;48.174;11.562;2024-03-08T01:16:10;16.00;;;10.93;;
27802;SDS011;15182;48.174;11.562;2024-03-08T01:18:38;15.33;;;12.10;;
27802;SDS011;15182;48.174;11.562;2024-03-08T01:21:06;15.13;;;11.00;;
27802;SDS011;15182;48.174;11.562;2024-03-08T01:23:33;13.23;;;11.40;;
27802;SDS011;15182;48.174;11.562;2024-03-08T01:26:01;13.40;;;11.27;;
27802;SDS011;15182;48.174;11.562;2024-03-08T01:28:29;14.50;;;10.83;;
27802;SDS011;15182;48.174;11.562;2024-03-08T01:30:59;17.67;;;11.20;;
27802;SDS011;15182;48.174;11.562;2024-03-08T01:33:31;16.30;;;11.37;;
27802;SDS011;15182;48.174;11.562;2024-03-08T01:35:59;17.50;;;11.93;;
27802;SDS011;15182;48.174;11.562;2024-03-08T01:38:26;18.53;;;12.20;;
27802;SDS011;15182;48.174;11.562;2024-03-08T01:40:54;15.17;;;11.53;;
27802;SDS011;15182;48.174;11.562;2024-03-08T01:43:25;15.37;;;11.17;;
27802;SDS011;15182;48.174;11.562;2024-03-08T01:45:55;18.43;;;12.00;;
27802;SDS011;15182;48.174;11.562;2024-03-08T01:48:25;15.53;;;11.73;;
27802;SDS011;15182;48.174;11.562;2024-03-08T01:50:56;16.83;;;11.43;;
27802;SDS011;15182;48.174;11.562;2024-03-08T01:53:24;17.43;;;12.50;;
27802;SDS011;15182;48.174;11.562;2024-03-08T01:55:55;14.60;;;11.67;;
27802;SDS011;15182;48.174;11.562;2024-03-08T01:58:25;20.63;;;14.60;;
27802;SDS011;15182;48.174;11.562;2024-03-08T02:00:56;20.97;;;13.37;;
27802;SDS011;15182;48.174;11.562;2024-03-08T02:03:24;18.10;;;11.23;;
27802;SDS011;15182;48.174;11.562;2024-03-08T02:05:53;15.90;;;11.87;;
27802;SDS011;15182;48.174;11.562;2024-03-08T02:08:24;20.60;;;12.17;;
27802;SDS011;15182;48.174;11.562;2024-03-08T02:10:52;14.67;;;11.07;;
27802;SDS011;15182;48.174;11.562;2024-03-08T02:13:20;14.63;;;11.50;;
27802;SDS011;15182;48.174;11.562;2024-03-08T02:15:52;19.30;;;12.93;;
27802;SDS011;15182;48.174;11.562;2024-03-08T02:18:21;16.93;;;11.83;;
27802;SDS011;15182;48.174;11.562;2024-03-08T02:20:52;15.70;;;11.33;;
27802;SDS011;15182;48.174;11.562;2024-03-08T02:23:20;16.50;;;12.27;;
27802;SDS011;15182;48.174;11.562;2024-03-08T02:25:50;15.27;;;10.87;;
27802;SDS011;15182;48.174;11.562;2024-03-08T02:28:19;19.27;;;12.70;;
27802;SDS011;15182;48.174;11.562;2024-03-08T02:30:47;18.87;;;13.00;;
27802;SDS011;15182;48.174;11.562;2024-03-08T02:33:16;17.50;;;11.70;;
27802;SDS011;15182;48.174;11.562;2024-03-08T02:35:45;17.33;;;12.07;;
27802;SDS011;15182;48.174;11.562;2024-03-08T02:38:16;18.70;;;11.93;;
27802;SDS011;15182;48.174;11.562;2024-03-08T02:40:45;16.30;;;12.07;;
27802;SDS011;15182;48.174;11.562;2024-03-08T02:43:14;19.87;;;13.33;;
27802;SDS011;15182;48.174;11.562;2024-03-08T02:45:44;15.40;;;11.83;;
27802;SDS011;15182;48.174;11.562;2024-03-08T02:48:12;18.73;;;12.67;;
27802;SDS011;15182;48.174;11.562;2024-03-08T02:50:42;15.67;;;11.87;;
27802;SDS011;15182;48.174;11.562;2024-03-08T02:53:10;17.77;;;12.67;;
27802;SDS011;15182;48.174;11.562;2024-03-08T02:55:40;19.70;;;13.30;;
27802;SDS011;15182;48.174;11.562;2024-03-08T02:58:09;17.57;;;12.27;;
27802;SDS011;15182;48.174;11.562;2024-03-08T03:00:37;18.97;;;12.77;;
27802;SDS011;15182;48.174;11.562;2024-03-08T03:03:06;19.07;;;12.67;;
27802;SDS011;15182;48.174;11.562;2024-03-08T03:05:34;21.00;;;12.83;;
27802;SDS011;15182;48.174;11.562;2024-03-08T03:08:03;17.87;;;13.03;;
27802;SDS011;15182;48.174;11.562;2024-03-08T03:10:34;20.07;;;13.10;;
27802;SDS011;15182;48.174;11.562;2024-03-08T03:13:03;19.77;;;12.50;;
27802;SDS011;15182;48.174;11.562;2024-03-08T03:15:32;20.10;;;12.77;;
27802;SDS011;15182;48.174;11.562;2024-03-08T03:18:00;19.70;;;12.57;;
27802;SDS011;15182;48.174;11.562;2024-03-08T03:20:28;17.87;;;12.57;;
27802;SDS011;15182;48.174;11.562;2024-03-08T03:22:58;18.10;;;12.47;;
27802;SDS011;15182;48.174;11.562;2024-03-08T03:25:29;20.37;;;12.97;;
27802;SDS011;15182;48.174;11.562;2024-03-08T03:28:00;17.93;;;12.43;;
27802;SDS011;15182;48.174;11.562;2024-03-08T03:30:31;17.60;;;12.23;;
27802;SDS011;15182;48.174;11.562;2024-03-08T03:33:00;21.30;;;13.93;;
27802;SDS011;15182;48.174;11.562;2024-03-08T03:35:28;20.30;;;12.90;;
27802;SDS011;15182;48.174;11.562;2024-03-08T03:37:56;17.30;;;12.63;;
27802;SDS011;15182;48.174;11.562;2024-03-08T03:40:32;18.93;;;13.20;;
27802;SDS011;15182;48.174;11.562;2024-03-08T03:43:00;19.40;;;12.83;;
27802;SDS011;15182;48.174;11.562;2024-03-08T03:45:29;19.37;;;13.17;;
27802;SDS011;15182;48.174;11.562;2024-03-08T03:48:01;19.13;;;12.90;;
27802;SDS011;15182;48.174;11.562;2024-03-08T03:50:30;18.90;;;13.20;;
27802;SDS011;15182;48.174;11.562;2024-03-08T03:53:00;21.53;;;13.80;;
27802;SDS011;15182;48.174;11.562;2024-03-08T03:55:28;20.07;;;13.27;;
27802;SDS011;15182;48.174;11.562;2024-03-08T03:57:56;17.27;;;12.30;;
27802;SDS011;15182;48.174;11.562;2024-03-08T04:00:26;17.77;;;12.53;;
27802;SDS011;15182;48.174;11.562;2024-03-08T04:02:56;21.97;;;13.67;;
27802;SDS011;15182;48.174;11.562;2024-03-08T04:05:26;21.93;;;13.80;;
27802;SDS011;15182;48.174;11.562;2024-03-08T04:07:54;20.73;;;13.80;;
27802;SDS011;15182;48.174;11.562;2024-03-08T04:10:22;17.80;;;12.90;;
27802;SDS011;15182;48.174;11.562;2024-03-08T04:12:50;17.97;;;12.57;;
27802;SDS011;15182;48.174;11.562;2024-03-08T04:15:18;19.43;;;13.17;;
27802;SDS011;15182;48.174;11.562;2024-03-08T04:17:46;19.63;;;12.93;;
27802;SDS011;15182;48.174;11.562;2024-03-08T04:20:15;18.60;;;13.30;;
27802;SDS011;15182;48.174;11.562;2024-03-08T04:22:43;20.03;;;12.93;;
27802;SDS011;15182;48.174;11.562;2024-03-08T04:25:12;21.20;;;13.67;;
27802;SDS011;15182;48.174;11.562;2024-03-08T04:27:41;22.03;;;13.43;;
27802;SDS011;15182;48.174;11.562;2024-03-08T04:30:10;18.93;;;13.33;;
27802;SDS011;15182;48.174;11.562;2024-03-08T04:32:39;20.63;;;13.27;;
27802;SDS011;15182;48.174;11.562;2024-03-08T04:35:08;21.10;;;14.50;;
27802;SDS011;15182;48.174;11.562;2024-03-08T04:37:39;22.50;;;14.07;;
27802;SDS011;15182;48.174;11.562;2024-03-08T04:40:07;23.93;;;14.13;;
27802;SDS011;15182;48.174;11.562;2024-03-08T04:42:36;22.13;;;14.30;;
27802;SDS011;15182;48.174;11.562;2024-03-08T04:45:06;20.67;;;13.60;;
27802;SDS011;15182;48.174;11.562;2024-03-08T04:47:36;21.23;;;14.10;;
27802;SDS011;15182;48.174;11.562;2024-03-08T04:50:05;22.07;;;13.53;;
27802;SDS011;15182;48.174;11.562;2024-03-08T04:52:34;19.13;;;13.33;;
27802;SDS011;15182;48.174;11.562;2024-03-08T04:55:04;22.53;;;14.97;;
27802;SDS011;15182;48.174;11.562;2024-03-08T04:57:33;24.60;;;15.07;;
27802;SDS011;15182;48.174;11.562;2024-03-08T05:00:01;27.63;;;16.23;;
27802;SDS011;15182;48.174;11.562;2024-03-08T05:02:30;20.87;;;14.07;;
27802;SDS011;15182;48.174;11.562;2024-03-08T05:04:58;22.67;;;14.77;;
27802;SDS011;15182;48.174;11.562;2024-03-08T05:07:26;23.77;;;14.50;;
27802;SDS011;15182;48.174;11.562;2024-03-08T05:09:54;24.07;;;14.80;;
27802;SDS011;15182;48.174;11.562;2024-03-08T05:12:23;22.57;;;15.03;;
27802;SDS011;15182;48.174;11.562;2024-03-08T05:14:51;25.00;;;15.40;;
27802;SDS011;15182;48.174;11.562;2024-03-08T05:17:19;26.83;;;15.40;;
27802;SDS011;15182;48.174;11.562;2024-03-08T05:19:49;28.23;;;17.33;;
27802;SDS011;15182;48.174;11.562;2024-03-08T05:22:17;23.00;;;15.40;;
27802;SDS011;15182;48.174;11.562;2024-03-08T05:24:45;27.63;;;16.53;;
27802;SDS011;15182;48.174;11.562;2024-03-08T05:27:13;24.43;;;16.07;;
27802;SDS011;15182;48.174;11.562;2024-03-08T05:29:43;23.53;;;15.77;;
27802;SDS011;15182;48.174;11.562;2024-03-08T05:32:12;24.67;;;15.70;;
27802;SDS011;15182;48.174;11.562;2024-03-08T05:34:40;28.10;;;17.03;;
27802;SDS011;15182;48.174;11.562;2024-03-08T05:37:08;25.27;;;16.40;;
27802;SDS011;15182;48.174;11.562;2024-03-08T05:39:37;28.17;;;18.10;;
27802;SDS011;15182;48.174;11.562;2024-03-08T05:42:06;27.23;;;16.77;;
27802;SDS011;15182;48.174;11.562;2024-03-08T05:44:35;25.23;;;15.40;;
27802;SDS011;15182;48.174;11.562;2024-03-08T05:47:04;28.40;;;16.47;;
27802;SDS011;15182;48.174;11.562;2024-03-08T05:49:32;26.37;;;16.53;;
27802;SDS011;15182;48.174;11.562;2024-03-08T05:52:00;28.23;;;16.50;;
27802;SDS011;15182;48.174;11.562;2024-03-08T05:54:28;27.77;;;15.60;;
27802;SDS011;15182;48.174;11.562;2024-03-08T05:56:56;28.17;;;16.80;;
27802;SDS011;15182;48.174;11.562;2024-03-08T05:59:24;30.67;;;17.53;;
27802;SDS011;15182;48.174;11.562;2024-03-08T06:01:51;27.67;;;17.27;;
27802;SDS011;15182;48.174;11.562;2024-03-08T06:04:21;30.50;;;17.10;;
27802;SDS011;15182;48.174;11.562;2024-03-08T06:10:56;32.27;;;17.77;;
27802;SDS011;15182;48.174;11.562;2024-03-08T06:13:25;28.60;;;16.90;;
27802;SDS011;15182;48.174;11.562;2024-03-08T06:15:52;31.30;;;17.43;;
27802;SDS011;15182;48.174;11.562;2024-03-08T06:18:20;32.73;;;17.40;;
27802;SDS011;15182;48.174;11.562;2024-03-08T06:20:49;27.83;;;16.20;;
27802;SDS011;15182;48.174;11.562;2024-03-08T06:23:17;33.93;;;18.27;;
27802;SDS011;15182;48.174;11.562;2024-03-08T06:25:45;34.37;;;18.27;;
27802;SDS011;15182;48.174;11.562;2024-03-08T06:28:13;29.37;;;17.00;;
27802;SDS011;15182;48.174;11.562;2024-03-08T06:30:41;34.00;;;17.30;;
27802;SDS011;15182;48.174;11.562;2024-03-08T06:33:08;33.27;;;17.90;;
27802;SDS011;15182;48.174;11.562;2024-03-08T06:35:36;32.13;;;17.30;;
27802;SDS011;15182;48.174;11.562;2024-03-08T06:38:05;32.20;;;17.50;;
27802;SDS011;15182;48.174;11.562;2024-03-08T06:40:33;34.73;;;17.20;;
27802;SDS011;15182;48.174;11.562;2024-03-08T06:43:01;39.03;;;17.47;;
27802;SDS011;15182;48.174;11.562;2024-03-08T06:45:31;32.93;;;18.00;;
27802;SDS011;15182;48.174;11.562;2024-03-08T06:47:59;30.27;;;16.43;;
27802;SDS011;15182;48.174;11.562;2024-03-08T06:50:27;29.27;;;16.53;;
27802;SDS011;15182;48.174;11.562;2024-03-08T06:52:54;37.13;;;16.87;;
27802;SDS011;15182;48.174;11.562;2024-03-08T06:55:24;29.30;;;17.23;;
27802;SDS011;15182;48.174;11.562;2024-03-08T06:57:51;30.80;;;17.63;;
27802;SDS011;15182;48.174;11.562;2024-03-08T07:00:19;31.77;;;17.10;;
27802;SDS011;15182;48.174;11.562;2024-03-08T07:02:52;29.73;;;16.83;;
27802;SDS011;15182;48.174;11.562;2024-03-08T07:05:20;29.80;;;16.97;;
27802;SDS011;15182;48.174;11.562;2024-03-08T07:07:49;33.27;;;17.47;;
27802;SDS011;15182;48.174;11.562;2024-03-08T07:10:16;27.30;;;15.67;;
27802;SDS011;15182;48.174;11.562;2024-03-08T07:12:47;27.33;;;16.13;;
27802;SDS011;15182;48.174;11.562;2024-03-08T07:15:15;28.50;;;15.40;;
27802;SDS011;15182;48.174;11.562;2024-03-08T07:17:45;29.63;;;16.23;;
27802;SDS011;15182;48.174;11.562;2024-03-08T07:20:13;29.70;;;16.17;;
27802;SDS011;15182;48.174;11.562;2024-03-08T07:22:44;28.70;;;16.10;;
27802;SDS011;15182;48.174;11.562;2024-03-08T07:25:13;29.17;;;16.37;;
27802;SDS011;15182;48.174;11.562;2024-03-08T07:27:49;29.07;;;15.90;;
27802;SDS011;15182;48.174;11.562;2024-03-08T07:30:18;27.07;;;14.90;;
27802;SDS011;15182;48.174;11.562;2024-03-08T07:33:03;30.70;;;15.97;;
27802;SDS011;15182;48.174;11.562;2024-03-08T07:35:32;30.03;;;16.57;;
27802;SDS011;15182;48.174;11.562;2024-03-08T07:38:03;27.13;;;15.90;;
27802;SDS011;15182;48.174;11.562;2024-03-08T07:40:31;27.77;;;15.63;;
27802;SDS011;15182;48.174;11.562;2024-03-08T07:43:02;29.03;;;16.83;;
27802;SDS011;15182;48.174;11.562;2024-03-08T07:45:30;27.80;;;15.83;;
27802;SDS011;15182;48.174;11.562;2024-03-08T07:47:57;28.10;;;16.40;;
27802;SDS011;15182;48.174;11.562;2024-03-08T07:50:25;31.23;;;16.87;;
27802;SDS011;15182;48.174;11.562;2024-03-08T07:52:54;27.63;;;15.63;;
27802;SDS011;15182;48.174;11.562;2024-03-08T07:55:22;25.80;;;16.30;;
27802;SDS011;15182;48.174;11.562;2024-03-08T07:57:50;31.53;;;16.33;;
27802;SDS011;15182;48.174;11.562;2024-03-08T08:00:19;32.00;;;16.93;;
27802;SDS011;15182;48.174;11.562;2024-03-08T08:02:47;27.23;;;15.23;;
27802;SDS011;15182;48.174;11.562;2024-03-08T08:05:15;26.77;;;15.87;;
27802;SDS011;15182;48.174;11.562;2024-03-08T08:07:44;29.07;;;15.53;;
27802;SDS011;15182;48.174;11.562;2024-03-08T08:10:12;33.37;;;17.17;;
27802;SDS011;15182;48.174;11.562;2024-03-08T08:12:44;29.33;;;16.93;;
27802;SDS011;15182;48.174;11.562;2024-03-08T08:15:12;33.13;;;16.60;;
27802;SDS011;15182;48.174;11.562;2024-03-08T08:17:42;30.63;;;15.83;;
27802;SDS011;15182;48.174;11.562;2024-03-08T08:20:10;32.93;;;17.33;;
27802;SDS011;15182;48.174;11.562;2024-03-08T08:22:39;24.30;;;15.10;;
27802;SDS011;15182;48.174;11.562;2024-03-08T08:25:07;27.87;;;16.47;;
27802;SDS011;15182;48.174;11.562;2024-03-08T08:27:39;26.67;;;15.53;;
27802;SDS011;15182;48.174;11.562;2024-03-08T08:30:08;27.83;;;15.17;;
27802;SDS011;15182;48.174;11.562;2024-03-08T08:32:37;29.47;;;16.97;;
27802;SDS011;15182;48.174;11.562;2024-03-08T08:35:07;32.23;;;16.27;;
27802;SDS011;15182;48.174;11.562;2024-03-08T08:37:35;28.40;;;15.67;;
27802;SDS011;15182;48.174;11.562;2024-03-08T08:40:05;32.27;;;16.73;;
27802;SDS011;15182;48.174;11.562;2024-03-08T08:42:36;31.23;;;16.20;;
27802;SDS011;15182;48.174;11.562;2024-03-08T08:45:05;24.53;;;15.23;;
27802;SDS011;15182;48.174;11.562;2024-03-08T08:47:34;29.07;;;16.10;;
27802;SDS011;15182;48.174;11.562;2024-03-08T08:50:03;26.37;;;15.17;;
27802;SDS011;15182;48.174;11.562;2024-03-08T08:52:35;30.57;;;15.70;;
27802;SDS011;15182;48.174;11.562;2024-03-08T08:55:04;26.63;;;14.57;;
27802;SDS011;15182;48.174;11.562;2024-03-08T08:57:33;26.77;;;14.87;;
27802;SDS011;15182;48.174;11.562;2024-03-08T09:00:01;25.23;;;13.87;;
27802;SDS011;15182;48.174;11.562;2024-03-08T09:02:32;25.90;;;15.77;;
27802;SDS011;15182;48.174;11.562;2024-03-08T09:05:00;22.60;;;14.87;;
27802;SDS011;15182;48.174;11.562;2024-03-08T09:07:30;22.77;;;13.87;;
27802;SDS011;15182;48.174;11.562;2024-03-08T09:09:58;25.43;;;14.47;;
27802;SDS011;15182;48.174;11.562;2024-03-08T09:12:25;25.00;;;14.33;;
27802;SDS011;15182;48.174;11.562;2024-03-08T09:14:53;23.57;;;14.57;;
27802;SDS011;15182;48.174;11.562;2024-03-08T09:17:21;24.57;;;13.90;;
27802;SDS011;15182;48.174;11.562;2024-03-08T09:19:49;27.70;;;14.63;;
27802;SDS011;15182;48.174;11.562;2024-03-08T09:22:17;25.03;;;15.07;;
27802;SDS011;15182;48.174;11.562;2024-03-08T09:24:46;24.57;;;14.13;;
27802;SDS011;15182;48.174;11.562;2024-03-08T09:27:13;27.70;;;14.43;;
27802;SDS011;15182;48.174;11.562;2024-03-08T09:29:41;32.37;;;15.40;;
27802;SDS011;15182;48.174;11.562;2024-03-08T09:32:10;28.60;;;15.50;;
27802;SDS011;15182;48.174;11.562;2024-03-08T09:34:38;29.90;;;16.20;;
27802;SDS011;15182;48.174;11.562;2024-03-08T09:37:06;26.40;;;15.67;;
27802;SDS011;15182;48.174;11.562;2024-03-08T09:39:34;31.10;;;16.63;;
27802;SDS011;15182;48.174;11.562;2024-03-08T09:42:04;28.30;;;15.83;;
27802;SDS011;15182;48.174;11.562;2024-03-08T09:44:32;26.20;;;15.87;;
27802;SDS011;15182;48.174;11.562;2024-03-08T09:47:01;24.87;;;14.73;;
27802;SDS011;15182;48.174;11.562;2024-03-08T09:49:29;29.07;;;16.00;;
27802;SDS011;15182;48.174;11.562;2024-03-08T09:51:57;31.63;;;17.30;;
27802;SDS011;15182;48.174;11.562;2024-03-08T09:54:25;26.73;;;15.43;;
27802;SDS011;15182;48.174;11.562;2024-03-08T09:56:54;25.47;;;15.00;;
27802;SDS011;15182;48.174;11.562;2024-03-08T09:59:23;24.90;;;14.20;;
27802;SDS011;15182;48.174;11.562;2024-03-08T10:02:12;29.00;;;16.20;;
27802;SDS011;15182;48.174;11.562;2024-03-08T10:04:42;28.13;;;15.40;;
27802;SDS011;15182;48.174;11.562;2024-03-08T10:07:12;25.43;;;15.63;;
27802;SDS011;15182;48.174;11.562;2024-03-08T10:09:40;21.70;;;14.00;;
27802;SDS011;15182;48.174;11.562;2024-03-08T10:12:13;26.23;;;15.23;;
27802;SDS011;15182;48.174;11.562;2024-03-08T10:14:43;23.80;;;14.10;;
27802;SDS011;15182;48.174;11.562;2024-03-08T10:17:12;21.40;;;13.53;;
27802;SDS011;15182;48.174;11.562;2024-03-08T10:19:41;21.43;;;13.93;;
27802;SDS011;15182;48.174;11.562;2024-03-08T10:22:17;19.47;;;12.70;;
27802;SDS011;15182;48.174;11.562;2024-03-08T10:24:46;24.20;;;14.10;;
27802;SDS011;15182;48.174;11.562;2024-03-08T10:27:16;22.57;;;14.30;;
27802;SDS011;15182;48.174;11.562;2024-03-08T10:29:47;18.97;;;13.27;;
27802;SDS011;15182;48.174;11.562;2024-03-08T10:32:17;21.60;;;13.37;;
27802;SDS011;15182;48.174;11.562;2024-03-08T10:34:46;20.07;;;12.93;;
27802;SDS011;15182;48.174;11.562;2024-03-08T10:37:15;21.53;;;14.07;;
27802;SDS011;15182;48.174;11.562;2024-03-08T10:40:02;19.20;;;13.20;;
27802;SDS011;15182;48.174;11.562;2024-03-08T10:42:38;19.20;;;12.60;;
27802;SDS011;15182;48.174;11.562;2024-03-08T10:45:15;19.13;;;11.63;;
27802;SDS011;15182;48.174;11.562;2024-03-08T10:47:52;20.10;;;13.17;;
27802;SDS011;15182;48.174;11.562;2024-03-08T10:50:53;16.77;;;11.53;;
27802;SDS011;15182;48.174;11.562;2024-03-08T10:53:22;23.00;;;12.80;;
27802;SDS011;15182;48.174;11.562;2024-03-08T10:55:51;22.43;;;12.83;;
27802;SDS011;15182;48.174;11.562;2024-03-08T10:58:21;16.53;;;11.83;;
27802;SDS011;15182;48.174;11.562;2024-03-08T11:00:54;20.23;;;12.90;;
27802;SDS011;15182;48.174;11.562;2024-03-08T11:06:18;17.30;;;11.00;;
27802;SDS011;15182;48.174;11.562;2024-03-08T11:08:49;16.17;;;11.60;;
27802;SDS011;15182;48.174;11.562;2024-03-08T11:11:24;16.10;;;11.47;;
27802;SDS011;15182;48.174;11.562;2024-03-08T11:14:00;16.57;;;11.33;;
27802;SDS011;15182;48.174;11.562;2024-03-08T11:16:37;16.87;;;11.90;;
27802;SDS011;15182;48.174;11.562;2024-03-08T11:19:23;16.90;;;11.23;;
27802;SDS011;15182;48.174;11.562;2024-03-08T11:21:58;17.67;;;11.53;;
27802;SDS011;15182;48.174;11.562;2024-03-08T11:24:39;16.67;;;11.57;;
27802;SDS011;15182;48.174;11.562;2024-03-08T11:27:07;14.20;;;11.07;;
27802;SDS011;15182;48.174;11.562;2024-03-08T11:29:37;14.43;;;10.70;;
27802;SDS011;15182;48.174;11.562;2024-03-08T11:32:11;16.67;;;12.30;;
27802;SDS011;15182;48.174;11.562;2024-03-08T11:34:43;16.87;;;11.27;;
27802;SDS011;15182;48.174;11.562;2024-03-08T11:37:15;17.00;;;11.27;;
27802;SDS011;15182;48.174;11.562;2024-03-08T11:39:46;21.60;;;12.23;;
27802;SDS011;15182;48.174;11.562;2024-03-08T11:42:15;16.43;;;11.00;;
27802;SDS011;15182;48.174;11.562;2024-03-08T11:44:44;15.17;;;10.70;;
27802;SDS011;15182;48.174;11.562;2024-03-08T11:47:14;15.83;;;11.17;;
27802;SDS011;15182;48.174;11.562;2024-03-08T11:49:43;12.93;;;10.73;;
27802;SDS011;15182;48.174;11.562;2024-03-08T11:52:13;16.77;;;11.53;;
27802;SDS011;15182;48.174;11.562;2024-03-08T11:54:42;15.07;;;10.60;;
27802;SDS011;15182;48.174;11.562;2024-03-08T11:57:17;14.63;;;11.13;;
27802;SDS011;15182;48.174;11.562;2024-03-08T11:59:49;14.93;;;10.80;;
27802;SDS011;15182;48.174;11.562;2024-03-08T12:02:18;19.60;;;11.40;;
27802;SDS011;15182;48.174;11.562;2024-03-08T12:04:46;18.67;;;10.97;;
27802;SDS011;15182;48.174;11.562;2024-03-08T12:07:14;15.87;;;11.47;;
27802;SDS011;15182;48.174;11.562;2024-03-08T12:09:55;17.10;;;11.37;;
27802;SDS011;15182;48.174;11.562;2024-03-08T12:12:44;15.03;;;10.67;;
27802;SDS011;15182;48.174;11.562;2024-03-08T12:15:13;15.83;;;11.90;;
27802;SDS011;15182;48.174;11.562;2024-03-08T12:17:45;14.00;;;10.63;;
27802;SDS011;15182;48.174;11.562;2024-03-08T12:20:15;17.47;;;11.60;;
27802;SDS011;15182;48.174;11.562;2024-03-08T12:22:44;16.43;;;11.17;;
27802;SDS011;15182;48.174;11.562;2024-03-08T12:25:12;15.30;;;10.73;;
27802;SDS011;15182;48.174;11.562;2024-03-08T12:27:40;16.30;;;11.50;;
27802;SDS011;15182;48.174;11.562;2024-03-08T12:30:19;15.93;;;10.93;;
27802;SDS011;15182;48.174;11.562;2024-03-08T12:32:52;14.17;;;10.40;;
27802;SDS011;15182;48.174;11.562;2024-03-08T12:35:22;14.43;;;11.03;;
27802;SDS011;15182;48.174;11.562;2024-03-08T12:37:52;13.80;;;10.53;;
27802;SDS011;15182;48.174;11.562;2024-03-08T12:40:25;20.67;;;10.87;;
27802;SDS011;15182;48.174;11.562;2024-03-08T12:42:54;20.57;;;11.20;;
27802;SDS011;15182;48.174;11.562;2024-03-08T12:45:22;15.13;;;10.80;;
27802;SDS011;15182;48.174;11.562;2024-03-08T12:47:52;15.27;;;11.03;;
27802;SDS011;15182;48.174;11.562;2024-03-08T12:50:20;14.13;;;11.17;;
27802;SDS011;15182;48.174;11.562;2024-03-08T12:52:48;15.50;;;10.83;;
27802;SDS011;15182;48.174;11.562;2024-03-08T12:55:16;15.17;;;10.93;;
27802;SDS011;15182;48.174;11.562;2024-03-08T12:57:44;14.17;;;10.10;;
27802;SDS011;15182;48.174;11.562;2024-03-08T13:00:13;14.73;;;10.27;;
27802;SDS011;15182;48.174;11.562;2024-03-08T13:02:44;11.63;;;10.43;;
27802;SDS011;15182;48.174;11.562;2024-03-08T13:05:14;15.63;;;9.93;;
27802;SDS011;15182;48.174;11.562;2024-03-08T13:07:42;14.30;;;11.03;;
27802;SDS011;15182;48.174;11.562;2024-03-08T13:10:12;14.87;;;10.40;;
27802;SDS011;15182;48.174;11.562;2024-03-08T13:12:41;13.47;;;10.03;;
27802;SDS011;15182;48.174;11.562;2024-03-08T13:15:09;12.00;;;10.13;;
27802;SDS011;15182;48.174;11.562;2024-03-08T13:17:40;11.77;;;10.23;;
27802;SDS011;15182;48.174;11.562;2024-03-08T13:20:10;12.03;;;9.70;;
27802;SDS011;15182;48.174;11.562;2024-03-08T13:22:45;13.60;;;10.20;;
27802;SDS011;15182;48.174;11.562;2024-03-08T13:25:13;11.80;;;9.40;;
27802;SDS011;15182;48.174;11.562;2024-03-08T13:27:41;12.73;;;10.00;;
27802;SDS011;15182;48.174;11.562;2024-03-08T13:30:09;13.70;;;10.20;;
27802;SDS011;15182;48.174;11.562;2024-03-08T13:32:39;13.60;;;10.17;;
27802;SDS011;15182;48.174;11.562;2024-03-08T13:35:09;15.10;;;10.23;;
27802;SDS011;15182;48.174;11.562;2024-03-08T13:37:38;14.37;;;10.60;;
27802;SDS011;15182;48.174;11.562;2024-03-08T13:40:09;14.93;;;10.60;;
27802;SDS011;15182;48.174;11.562;2024-03-08T13:42:39;14.20;;;9.77;;
27802;SDS011;15182;48.174;11.562;2024-03-08T13:45:07;13.53;;;10.27;;
27802;SDS011;15182;48.174;11.562;2024-03-08T13:47:37;13.67;;;9.80;;
27802;SDS011;15182;48.174;11.562;2024-03-08T13:50:07;12.77;;;9.90;;
27802;SDS011;15182;48.174;11.562;2024-03-08T13:52:37;12.50;;;9.87;;
27802;SDS011;15182;48.174;11.562;2024-03-08T13:55:06;15.37;;;9.53;;
27802;SDS011;15182;48.174;11.562;2024-03-08T13:57:36;14.23;;;9.53;;
27802;SDS011;15182;48.174;11.562;2024-03-08T14:00:04;11.93;;;9.93;;
27802;SDS011;15182;48.174;11.562;2024-03-08T14:02:53;12.47;;;9.67;;
27802;SDS011;15182;48.174;11.562;2024-03-08T14:05:21;14.37;;;10.17;;
27802;SDS011;15182;48.174;11.562;2024-03-08T14:07:49;10.67;;;8.83;;
27802;SDS011;15182;48.174;11.562;2024-03-08T14:10:21;12.30;;;9.73;;
27802;SDS011;15182;48.174;11.562;2024-03-08T14:12:49;15.83;;;11.00;;
27802;SDS011;15182;48.174;11.562;2024-03-08T14:15:17;12.30;;;10.17;;
27802;SDS011;15182;48.174;11.562;2024-03-08T14:17:52;13.27;;;10.07;;
27802;SDS011;15182;48.174;11.562;2024-03-08T14:20:20;14.00;;;10.30;;
27802;SDS011;15182;48.174;11.562;2024-03-08T14:22:51;16.90;;;10.23;;
27802;SDS011;15182;48.174;11.562;2024-03-08T14:25:20;13.93;;;10.13;;
27802;SDS011;15182;48.174;11.562;2024-03-08T14:27:49;10.40;;;8.53;;
27802;SDS011;15182;48.174;11.562;2024-03-08T14:30:19;12.43;;;9.67;;